Seneca, KS (66538)

4:48 AM CST on February 09, 2016 (GMT -0600)
Powhattan | | Change Station
CLOSE
Current Station
Personal Weather Station
Location: Hiawatha, KS
Elevation: 1191 ft
Nearby Weather Stations

Elev 1191 ft 39.75 °N, 95.61 °W | Updated 0 second ago

Clear
Clear
21.8 °F
Feels Like 7 °F
N
19.8
Wind Variable Wind from NNW
Gusts 28.0 mph

Today
High -- | Low -- °F
--% Chance of Precip.
Yesterday
High -- | Low -- °F
Precip. -- in
Pressure 30.12 in
Visibility 10.0 miles
Clouds Clear
Windchill 7 °F
Dew Point 14 °F
Humidity 68%
Rainfall 0.00 in
Snow Depth Not available.
7:24 AM 5:52 PM
New Moon, 1% visible
METAR KFNB 090953Z AUTO 33021G30KT 10SM CLR M05/M12 A3008 RMK AO2 PK WND 32030/0951 SLP198 T10501117
Pressure 30.12 in
Visibility 10.0 miles
Clouds Clear
Windchill 7 °F
Dew Point 14 °F
Humidity 68%
Rainfall 0.00 in
Snow Depth Not available.
7:24 AM 5:52 PM
New Moon, 1% visible
METAR KFNB 090953Z AUTO 33021G30KT 10SM CLR M05/M12 A3008 RMK AO2 PK WND 32030/0951 SLP198 T10501117

10-Day Weather Forecast

Almanac

Astronomy

Feb. 09, 2016 Rise Set
Actual Time
Civil Twilight
Nautical Twilight
Astronomical Twilight
Moon
Length of Visible Light
Length of Day
Tomorrow will be .
, % of the Moon is Illuminated

Today's Extremes

State Highs State Lows

Community

WunderPhotos

Upload Photos

1,891,565 photos uploaded!

WunderBlog® & News

Nearby

Air Quality

  Air Quality AQ Index Pollutant
Not available.

Snow Depth

Station Depth Elevation

Earthquake Activity

City Distance Mag. Time & Date
Minimum magnitude displayed is 2.5.

Coastal Water Temperatures

Place Temperature

Stations

Nearby Weather Stations

Station Location Temp. Windchill Dew Point Humidity Wind Precip. Elev Updated Type
                   

Watches & Warnings

There are currently no watches in effect.